Time;durP1;ratioP1;P1;durP2;ratioP2;P2;SDS_P1;SDS_P2;PMS_P1;PMS_P2;Temp;Humidity;BMP_temperature;BMP_pressure;BME280_temperature;BME280_humidity;BME280_pressure;Samples;Min_cycle;Max_cycle;Signal;HPM_P1;HPM_P2
2023/04/08 06:54:09;;;;;;;;;;;;;;;9.53;60.98;97165.69;4227185;27;10241;-81
2023/04/08 06:56:12;;;;;;;;;;;;;;;9.86;60.55;97169.69;4223065;28;5609;-81
2023/04/08 06:58:15;;;;;;;;;;;;;;;10.12;59.96;97161.34;4224619;28;5612;-80
2023/04/08 07:00:18;;;;;;;;;;;;;;;10.32;59.81;97172.22;4230898;28;5669;-81
2023/04/08 07:02:21;;;;;;;;;;;;;;;10.44;59.57;97164.66;4230510;28;5676;-82
2023/04/08 07:04:24;;;;;;;;;;;;;;;10.59;59.18;97167.28;4230482;28;5685;-81
2023/04/08 07:06:27;;;;;;;;;;;;;;;10.69;58.85;97162.53;4231332;28;5733;-81
2023/04/08 07:08:30;;;;;;;;;;;;;;;10.80;58.78;97172.63;4231348;28;5633;-81
2023/04/08 07:10:35;;;;;;;;;;;;;;;10.88;58.83;97172.53;4232326;28;5727;-81
2023/04/08 07:12:38;;;;;;;;;;;;;;;10.96;58.61;97176.88;4231194;28;5757;-81
2023/04/08 07:14:40;;;;;;;;;;;;;;;11.03;58.26;97169.84;4224112;28;5801;-81
2023/04/08 07:16:43;;;;;;;;;;;;;;;11.09;57.77;97169.91;4227809;28;5849;-81
2023/04/08 07:18:46;;;;;;;;;;;;;;;11.13;57.63;97175.66;4228244;28;5637;-81
2023/04/08 07:20:52;;;;;;;;;;;;;;;11.17;58.03;97170.81;4225948;28;5826;-81
2023/04/08 07:22:55;;;;;;;;;;;;;;;11.18;57.46;97172.44;4221840;28;5643;-81
2023/04/08 07:24:58;;;;;;;;;;;;;;;11.19;57.74;97168.78;4224785;28;5931;-81
2023/04/08 07:27:02;;;;;;;;;;;;;;;11.22;57.44;97165.78;4226696;28;5616;-81
2023/04/08 07:29:06;;;;;;;;;;;;;;;11.24;57.47;97174.34;4224821;28;5731;-80
2023/04/08 07:31:10;;;;;;;;;;;;;;;11.28;57.37;97175.59;4221329;28;5627;-81
2023/04/08 07:33:14;;;;;;;;;;;;;;;11.34;57.11;97177.50;4225997;28;5716;-81
2023/04/08 07:35:23;;;;;;;;;;;;;;;11.39;57.24;97180.41;4221383;28;5114;-80
2023/04/08 07:37:25;;;;;;;;;;;;;;;11.45;56.94;97179.66;4223632;28;7668;-81
2023/04/08 07:39:28;;;;;;;;;;;;;;;11.49;56.62;97180.09;4226378;28;5602;-82
2023/04/08 07:41:31;;;;;;;;;;;;;;;11.50;56.79;97179.91;4226039;28;5880;-81
2023/04/08 07:43:35;;;;;;;;;;;;;;;11.52;56.76;97182.34;4229317;28;5692;-82
2023/04/08 07:45:39;;;;;;;;;;;;;;;11.53;56.53;97184.81;4220310;28;5822;-80
2023/04/08 07:47:42;;;;;;;;;;;;;;;11.58;56.48;97179.78;4223954;28;5699;-80
2023/04/08 07:49:47;;;;;;;;;;;;;;;11.66;56.53;97181.47;4219953;28;5962;-80
2023/04/08 07:51:50;;;;;;;;;;;;;;;11.69;56.49;97183.75;4224812;28;5728;-80
2023/04/08 07:53:53;;;;;;;;;;;;;;;11.72;56.24;97182.53;4221503;28;5763;-80
2023/04/08 07:55:56;;;;;;;;;;;;;;;11.69;56.22;97183.75;4213022;28;5613;-81
2023/04/08 07:58:00;;;;;;;;;;;;;;;11.71;56.25;97188.84;4209432;28;5759;-80
2023/04/08 08:00:06;;;;;;;;;;;;;;;11.73;55.94;97197.41;4211954;28;5616;-80
2023/04/08 08:02:08;;;;;;;;;;;;;;;11.75;56.10;97195.41;4209430;28;5716;-80
2023/04/08 08:04:12;;;;;;;;;;;;;;;11.77;55.98;97199.50;4209896;28;5684;-80
2023/04/08 08:06:15;;;;;;;;;;;;;;;11.81;56.06;97195.50;4216482;28;5612;-81
2023/04/08 08:08:18;;;;;;;;;;;;;;;11.82;55.79;97201.63;4208590;28;5696;-80
2023/04/08 08:10:21;;;;;;;;;;;;;;;11.83;55.43;97203.25;4215345;28;5708;-81
2023/04/08 08:12:24;;;;;;;;;;;;;;;11.81;55.79;97203.44;4211823;28;5761;-80
2023/04/08 08:14:27;;;;;;;;;;;;;;;11.83;55.49;97204.06;4208955;28;5740;-82
2023/04/08 08:16:32;;;;;;;;;;;;;;;11.86;55.46;97201.03;4214751;28;5818;-80
2023/04/08 08:18:35;;;;;;;;;;;;;;;11.88;55.19;97200.84;4198737;28;5839;-81
2023/04/08 08:20:38;;;;;;;;;;;;;;;11.92;55.00;97204.75;4207558;28;5798;-82
2023/04/08 08:22:41;;;;;;;;;;;;;;;11.94;55.25;97202.72;4212570;28;5822;-80
2023/04/08 08:24:59;;;;;;;;;;;;;;;11.99;55.10;97212.75;4211425;28;5839;-81
2023/04/08 08:27:03;;;;;;;;;;;;;;;11.99;54.80;97210.91;4210869;28;5692;-81
2023/04/08 08:29:07;;;;;;;;;;;;;;;11.99;54.90;97210.09;4212352;28;5636;-80
2023/04/08 08:31:11;;;;;;;;;;;;;;;12.02;54.75;97205.25;4217478;28;5720;-81
2023/04/08 08:33:15;;;;;;;;;;;;;;;12.02;54.67;97207.91;4218331;28;5692;-81
2023/04/08 08:35:18;;;;;;;;;;;;;;;12.00;54.64;97209.06;4212120;28;5628;-81
2023/04/08 08:37:21;;;;;;;;;;;;;;;12.00;54.50;97212.56;4217432;28;5613;-80
2023/04/08 08:39:23;;;;;;;;;;;;;;;12.03;54.51;97206.88;4216342;28;5747;-81
2023/04/08 08:41:27;;;;;;;;;;;;;;;12.05;54.08;97207.50;4220355;28;5695;-81
2023/04/08 08:43:32;;;;;;;;;;;;;;;12.05;54.08;97202.22;4216099;28;5723;-80
2023/04/08 08:45:38;;;;;;;;;;;;;;;12.06;54.29;97214.44;4213530;28;5822;-81
2023/04/08 08:47:41;;;;;;;;;;;;;;;12.07;54.13;97213.44;4215039;28;5719;-80
2023/04/08 08:49:47;;;;;;;;;;;;;;;12.09;53.91;97208.75;4207485;28;6540;-81
2023/04/08 08:51:52;;;;;;;;;;;;;;;12.12;53.79;97203.09;4218193;28;6379;-80
2023/04/08 08:53:56;;;;;;;;;;;;;;;12.15;53.83;97215.94;4219595;28;5629;-81
2023/04/08 08:56:00;;;;;;;;;;;;;;;12.19;53.79;97209.25;4211914;28;5794;-80
2023/04/08 08:58:20;;;;;;;;;;;;;;;12.23;53.74;97210.50;4212438;28;5721;-79
2023/04/08 09:00:31;;;;;;;;;;;;;;;12.26;53.83;97219.09;4216832;28;5872;-80
2023/04/08 09:02:36;;;;;;;;;;;;;;;12.27;53.69;97210.94;4216663;28;5656;-81
2023/04/08 09:04:40;;;;;;;;;;;;;;;12.23;53.71;97213.16;4217821;28;5812;-81
2023/04/08 09:06:45;;;;;;;;;;;;;;;12.20;53.81;97215.34;4211254;28;7743;-68
2023/04/08 09:08:48;;;;;;;;;;;;;;;12.26;53.80;97208.47;4205373;28;5632;-77
2023/04/08 09:10:51;;;;;;;;;;;;;;;12.33;53.76;97219.94;4217231;28;5677;-67
2023/04/08 09:12:55;;;;;;;;;;;;;;;12.34;53.41;97216.25;4209736;28;5684;-67
2023/04/08 09:15:05;;;;;;;;;;;;;;;12.31;53.87;97214.00;4210234;28;5617;-71
2023/04/08 09:17:08;;;;;;;;;;;;;;;12.33;53.61;97215.44;4207352;28;5605;-65
2023/04/08 09:19:12;;;;;;;;;;;;;;;12.25;53.26;97212.97;4206200;28;5635;-68
2023/04/08 09:21:16;;;;;;;;;;;;;;;12.21;53.38;97217.00;4215310;28;6295;-62
2023/04/08 09:23:20;;;;;;;;;;;;;;;12.32;53.39;97220.94;4207316;28;5795;-73
2023/04/08 09:25:24;;;;;;;;;;;;;;;12.35;53.45;97213.44;4213298;28;5112;-66
2023/04/08 09:27:35;;;;;;;;;;;;;;;12.33;53.36;97220.75;4211791;28;7719;-64
2023/04/08 09:29:38;;;;;;;;;;;;;;;12.34;53.26;97216.25;4214757;28;5673;-77
2023/04/08 09:31:42;;;;;;;;;;;;;;;12.35;52.87;97207.31;4211555;28;5639;-65
2023/04/08 09:33:45;;;;;;;;;;;;;;;12.32;52.84;97207.69;4211340;28;5617;-70
2023/04/08 09:35:48;;;;;;;;;;;;;;;12.33;52.99;97209.31;4213977;28;5648;-67
2023/04/08 09:37:51;;;;;;;;;;;;;;;12.31;53.19;97214.81;4214554;28;6360;-69
2023/04/08 09:39:56;;;;;;;;;;;;;;;12.33;52.75;97204.84;4213437;28;5707;-72
2023/04/08 09:42:05;;;;;;;;;;;;;;;12.40;52.78;97204.91;4210467;28;5660;-72
2023/04/08 09:44:09;;;;;;;;;;;;;;;12.49;53.02;97204.56;4207121;28;5796;-69
2023/04/08 09:46:13;;;;;;;;;;;;;;;12.49;52.48;97195.78;4208528;28;6329;-72
2023/04/08 09:48:20;;;;;;;;;;;;;;;12.47;52.80;97201.28;4212180;28;5613;-73
2023/04/08 09:50:28;;;;;;;;;;;;;;;12.52;52.65;97198.84;4210867;28;5664;-70
2023/04/08 09:52:39;;;;;;;;;;;;;;;12.54;52.24;97203.97;4216594;28;5132;-70
2023/04/08 09:54:50;;;;;;;;;;;;;;;12.47;52.34;97201.28;4210486;28;5128;-70
2023/04/08 09:57:04;;;;;;;;;;;;;;;12.50;52.45;97195.56;4210673;28;5783;-70
2023/04/08 09:59:13;;;;;;;;;;;;;;;12.56;52.37;97198.44;4210720;28;5736;-70
2023/04/08 10:01:19;;;;;;;;;;;;;;;12.59;52.07;97201.56;4212175;28;5669;-70
2023/04/08 10:03:27;;;;;;;;;;;;;;;12.60;52.22;97199.72;4206478;28;5726;-70
2023/04/08 10:05:31;;;;;;;;;;;;;;;12.63;52.21;97207.28;4207239;28;5757;-70
2023/04/08 10:07:35;;;;;;;;;;;;;;;12.60;52.17;97197.88;4205031;28;5681;-70
2023/04/08 10:09:40;;;;;;;;;;;;;;;12.61;52.28;97191.56;4203313;28;5759;-70
2023/04/08 10:11:43;;;;;;;;;;;;;;;12.65;51.96;97194.63;4207549;28;5688;-71
2023/04/08 10:13:48;;;;;;;;;;;;;;;12.63;51.93;97186.06;4210670;28;5680;-71
2023/04/08 10:16:18;;;;;;;;;;;;;;;12.62;52.11;97193.19;4214954;28;6398;-71
2023/04/08 10:18:32;;;;;;;;;;;;;;;12.66;51.82;97185.66;4209998;28;5700;-71
2023/04/08 10:20:42;;;;;;;;;;;;;;;12.68;51.76;97184.44;4207008;28;5803;-71
2023/04/08 10:22:47;;;;;;;;;;;;;;;12.74;51.69;97188.97;4205489;28;6008;-71
2023/04/08 10:25:28;;;;;;;;;;;;;;;12.75;51.59;97181.81;4206960;28;5431;-71
2023/04/08 10:27:40;;;;;;;;;;;;;;;12.74;51.73;97186.31;4192694;28;5105;-71
2023/04/08 10:29:45;;;;;;;;;;;;;;;12.71;51.36;97185.91;4216240;28;5692;-71
2023/04/08 10:31:50;;;;;;;;;;;;;;;12.66;51.87;97186.47;4216219;28;5684;-71
2023/04/08 10:33:53;;;;;;;;;;;;;;;12.71;51.96;97181.41;4217463;28;5789;-70
2023/04/08 10:36:01;;;;;;;;;;;;;;;12.77;51.87;97183.25;4217441;28;5792;-71
2023/04/08 10:38:04;;;;;;;;;;;;;;;12.81;51.65;97165.13;4217546;28;5746;-71
2023/04/08 10:40:18;;;;;;;;;;;;;;;12.81;51.66;97171.25;4217575;28;5674;-72
2023/04/08 10:42:27;;;;;;;;;;;;;;;12.89;51.50;97172.91;4217517;28;6366;-71
2023/04/08 10:44:30;;;;;;;;;;;;;;;12.90;51.27;97177.19;4217433;28;5685;-70
2023/04/08 10:46:38;;;;;;;;;;;;;;;12.87;51.45;97174.13;4217490;28;5802;-70
2023/04/08 10:48:41;;;;;;;;;;;;;;;12.86;51.33;97173.31;4217490;28;5683;-72
2023/04/08 10:50:45;;;;;;;;;;;;;;;12.88;51.76;97171.28;4217366;28;5846;-70
2023/04/08 10:52:48;;;;;;;;;;;;;;;12.91;51.56;97162.94;4216999;28;7691;-71
2023/04/08 10:54:50;;;;;;;;;;;;;;;12.95;51.43;97166.00;4217477;28;5117;-71
2023/04/08 10:56:53;;;;;;;;;;;;;;;13.00;51.44;97158.25;4217428;28;7952;-71
2023/04/08 10:58:56;;;;;;;;;;;;;;;13.05;51.31;97161.94;4217273;28;5617;-71
2023/04/08 11:01:04;;;;;;;;;;;;;;;13.13;51.19;97163.59;4217381;28;5703;-72
2023/04/08 11:03:09;;;;;;;;;;;;;;;13.24;51.14;97165.69;4217472;28;5625;-71
2023/04/08 11:05:14;;;;;;;;;;;;;;;13.33;50.92;97166.34;4217252;28;5612;-72
2023/04/08 11:07:20;;;;;;;;;;;;;;;13.39;50.83;97162.88;4217224;28;5624;-72
2023/04/08 11:09:23;;;;;;;;;;;;;;;13.40;50.87;97165.34;4217282;28;5618;-72
2023/04/08 11:11:28;;;;;;;;;;;;;;;13.40;50.74;97167.16;4217194;28;5644;-72
2023/04/08 11:13:33;;;;;;;;;;;;;;;13.39;51.05;97165.53;4217056;28;5613;-71
2023/04/08 11:15:36;;;;;;;;;;;;;;;13.35;50.91;97159.78;4210620;28;5719;-72
2023/04/08 11:17:39;;;;;;;;;;;;;;;13.34;51.01;97165.31;4207499;28;5699;-72
2023/04/08 11:19:44;;;;;;;;;;;;;;;13.39;50.67;97160.22;4206764;28;5869;-72
2023/04/08 11:21:47;;;;;;;;;;;;;;;13.49;50.78;97158.00;4208710;28;6294;-73
2023/04/08 11:23:51;;;;;;;;;;;;;;;13.60;50.29;97144.13;4212877;28;5821;-72
2023/04/08 11:25:56;;;;;;;;;;;;;;;13.72;49.81;97156.78;4209178;28;5999;-72
2023/04/08 11:27:59;;;;;;;;;;;;;;;13.81;49.86;97156.34;4200188;28;5628;-72
2023/04/08 11:30:04;;;;;;;;;;;;;;;13.89;49.56;97161.47;4212740;28;5759;-72
2023/04/08 11:32:07;;;;;;;;;;;;;;;13.99;49.24;97151.25;4213997;28;5699;-72
2023/04/08 11:34:11;;;;;;;;;;;;;;;14.02;49.14;97152.69;4218006;28;5628;-72
2023/04/08 11:36:17;;;;;;;;;;;;;;;14.07;49.34;97152.06;4197247;28;5651;-71
2023/04/08 11:38:23;;;;;;;;;;;;;;;14.08;49.06;97145.75;4200844;28;5628;-72
2023/04/08 11:40:26;;;;;;;;;;;;;;;14.06;49.34;97150.44;4215599;28;5704;-72
2023/04/08 11:42:30;;;;;;;;;;;;;;;14.06;49.25;97143.28;4207434;28;5692;-73
2023/04/08 11:44:33;;;;;;;;;;;;;;;14.10;49.07;97154.31;4215301;28;5858;-72
2023/04/08 11:46:36;;;;;;;;;;;;;;;14.17;49.07;97139.19;4211933;28;6297;-72
2023/04/08 11:48:39;;;;;;;;;;;;;;;14.27;48.70;97142.25;4210624;28;5648;-72
2023/04/08 11:50:43;;;;;;;;;;;;;;;14.36;48.47;97148.13;4211566;28;5723;-72
2023/04/08 11:52:49;;;;;;;;;;;;;;;14.35;48.04;97157.94;4211866;28;5605;-72
2023/04/08 11:54:55;;;;;;;;;;;;;;;14.35;48.09;97155.28;4209842;28;5790;-72
2023/04/08 11:56:59;;;;;;;;;;;;;;;14.34;48.09;97148.34;4208904;28;5620;-73
2023/04/08 11:59:03;;;;;;;;;;;;;;;14.35;48.12;97146.50;4215642;28;5609;-72
2023/04/08 12:01:06;;;;;;;;;;;;;;;14.32;48.16;97142.41;4209956;28;5837;-72
2023/04/08 12:03:09;;;;;;;;;;;;;;;14.36;47.88;97138.31;4213949;28;5814;-72
2023/04/08 12:05:12;;;;;;;;;;;;;;;14.37;47.81;97139.94;4213892;28;5704;-72
2023/04/08 12:07:16;;;;;;;;;;;;;;;14.38;47.62;97136.25;4211226;28;5739;-72
2023/04/08 12:09:21;;;;;;;;;;;;;;;14.43;47.63;97143.63;4213931;28;5673;-72
2023/04/08 12:11:24;;;;;;;;;;;;;;;14.46;47.69;97137.91;4209028;28;5702;-73
2023/04/08 12:13:27;;;;;;;;;;;;;;;14.47;47.42;97144.84;4216070;28;5710;-72
2023/04/08 12:15:31;;;;;;;;;;;;;;;14.48;47.24;97147.31;4205704;28;5719;-72
2023/04/08 12:17:34;;;;;;;;;;;;;;;14.52;46.59;97131.75;4212571;28;5711;-72
2023/04/08 12:19:37;;;;;;;;;;;;;;;14.55;46.63;97137.47;4218040;28;5665;-72
2023/04/08 12:21:40;;;;;;;;;;;;;;;14.60;46.13;97144.81;4210346;28;5695;-72
2023/04/08 12:23:43;;;;;;;;;;;;;;;14.68;46.68;97143.78;4214679;28;5703;-72
2023/04/08 12:25:47;;;;;;;;;;;;;;;14.70;46.56;97137.22;4203266;28;5771;-72
2023/04/08 12:27:50;;;;;;;;;;;;;;;14.73;46.22;97139.47;4216349;28;5674;-72
2023/04/08 12:29:53;;;;;;;;;;;;;;;14.77;46.06;97137.19;4217441;28;5636;-72
2023/04/08 12:31:55;;;;;;;;;;;;;;;14.80;46.01;97134.91;4215016;28;5780;-72
2023/04/08 12:33:58;;;;;;;;;;;;;;;14.83;45.90;97136.34;4217418;28;5748;-72
2023/04/08 12:36:01;;;;;;;;;;;;;;;14.84;45.68;97141.47;4217758;28;5720;-72
2023/04/08 12:38:05;;;;;;;;;;;;;;;14.85;45.69;97137.78;4215281;28;5923;-72
2023/04/08 12:40:09;;;;;;;;;;;;;;;14.81;45.40;97141.06;4217709;28;5699;-72
2023/04/08 12:42:14;;;;;;;;;;;;;;;14.76;45.30;97135.56;4216412;28;5711;-72
2023/04/08 12:44:16;;;;;;;;;;;;;;;14.76;45.55;97133.72;4210770;28;5725;-71
2023/04/08 12:46:20;;;;;;;;;;;;;;;14.76;45.31;97127.56;4216891;28;5621;-71
2023/04/08 12:48:23;;;;;;;;;;;;;;;14.78;45.06;97115.69;4214921;28;5881;-72
2023/04/08 12:50:25;;;;;;;;;;;;;;;14.85;45.15;97124.47;4209792;28;6373;-72
2023/04/08 12:52:28;;;;;;;;;;;;;;;14.93;45.01;97123.38;4209150;28;5684;-71
2023/04/08 12:54:31;;;;;;;;;;;;;;;14.98;45.05;97120.91;4215437;28;5688;-71
2023/04/08 12:56:34;;;;;;;;;;;;;;;15.01;44.37;97123.16;4212867;28;5801;-72
2023/04/08 12:58:39;;;;;;;;;;;;;;;15.01;44.27;97125.00;4213753;28;5839;-71
2023/04/08 13:00:45;;;;;;;;;;;;;;;14.99;44.30;97125.22;4213400;28;5621;-72
2023/04/08 13:02:48;;;;;;;;;;;;;;;14.98;44.09;97128.09;4212889;28;5849;-73
2023/04/08 13:04:52;;;;;;;;;;;;;;;15.01;44.39;97117.81;4211072;28;5123;-73
2023/04/08 13:06:55;;;;;;;;;;;;;;;15.04;44.06;97121.91;4212352;28;5528;-73
2023/04/08 13:08:58;;;;;;;;;;;;;;;15.06;44.24;97117.19;4217115;28;5720;-73
2023/04/08 13:11:01;;;;;;;;;;;;;;;15.04;44.30;97125.38;4208918;28;5700;-72
2023/04/08 13:13:06;;;;;;;;;;;;;;;15.03;44.24;97123.75;4209342;28;5893;-72
2023/04/08 13:15:11;;;;;;;;;;;;;;;15.00;43.93;97118.84;4216929;28;5918;-72
2023/04/08 13:17:14;;;;;;;;;;;;;;;15.02;43.89;97122.13;4217142;28;5700;-72
2023/04/08 13:19:17;;;;;;;;;;;;;;;15.05;44.19;97111.03;4214833;28;5669;-72
2023/04/08 13:21:20;;;;;;;;;;;;;;;15.09;43.97;97136.22;4202493;28;5692;-72
2023/04/08 13:23:23;;;;;;;;;;;;;;;15.12;43.86;97125.13;4215485;28;5795;-72
2023/04/08 13:25:26;;;;;;;;;;;;;;;15.19;43.54;97127.78;4214736;28;5787;-72
2023/04/08 13:27:29;;;;;;;;;;;;;;;15.25;43.41;97118.09;4206698;28;5670;-72
2023/04/08 13:29:32;;;;;;;;;;;;;;;15.28;43.27;97123.00;4208030;28;5754;-72
2023/04/08 13:31:36;;;;;;;;;;;;;;;15.25;43.43;97134.91;4211865;28;5612;-72
2023/04/08 13:33:39;;;;;;;;;;;;;;;15.22;43.16;97118.53;4212162;28;5700;-72
2023/04/08 13:35:41;;;;;;;;;;;;;;;15.25;43.05;97116.25;4212566;28;5720;-72
2023/04/08 13:37:44;;;;;;;;;;;;;;;15.28;43.01;97123.81;4212652;28;5529;-72
2023/04/08 13:39:47;;;;;;;;;;;;;;;15.30;42.83;97108.44;4215347;28;6302;-72
2023/04/08 13:41:51;;;;;;;;;;;;;;;15.33;42.85;97112.53;4210680;28;5783;-72
2023/04/08 13:43:53;;;;;;;;;;;;;;;15.36;42.84;97117.41;4207138;28;5711;-72
2023/04/08 13:45:57;;;;;;;;;;;;;;;15.39;42.85;97114.31;4216702;28;5624;-72
2023/04/08 13:48:01;;;;;;;;;;;;;;;15.43;42.66;97111.00;4207978;28;5696;-72
2023/04/08 13:50:05;;;;;;;;;;;;;;;15.47;42.26;97118.56;4211428;28;5761;-72
2023/04/08 13:52:08;;;;;;;;;;;;;;;15.47;42.38;97118.56;4209842;28;5828;-72
2023/04/08 13:54:10;;;;;;;;;;;;;;;15.46;41.99;97112.44;4210032;28;5778;-72
2023/04/08 13:56:13;;;;;;;;;;;;;;;15.44;41.47;97115.31;4214397;28;5711;-72
2023/04/08 13:58:16;;;;;;;;;;;;;;;15.43;41.18;97107.53;4214083;28;5708;-72
2023/04/08 14:00:26;;;;;;;;;;;;;;;15.43;41.58;97110.19;4215686;28;5620;-72
2023/04/08 14:02:28;;;;;;;;;;;;;;;15.47;41.55;97107.91;4210832;28;5715;-72
2023/04/08 14:04:33;;;;;;;;;;;;;;;15.57;41.36;97118.91;4211287;28;5522;-72
2023/04/08 14:06:36;;;;;;;;;;;;;;;15.57;41.30;97109.06;4212481;28;5699;-72
2023/04/08 14:08:39;;;;;;;;;;;;;;;15.66;41.43;97102.47;4211214;28;5719;-72
2023/04/08 14:10:42;;;;;;;;;;;;;;;15.73;41.28;97111.22;4211128;28;5601;-72
2023/04/08 14:12:45;;;;;;;;;;;;;;;15.81;41.32;97103.97;4211658;28;5643;-72
2023/04/08 14:14:48;;;;;;;;;;;;;;;15.86;41.42;97106.81;4215729;28;5700;-72
2023/04/08 14:16:52;;;;;;;;;;;;;;;15.86;41.31;97117.50;4214153;28;5756;-72
2023/04/08 14:18:54;;;;;;;;;;;;;;;15.81;41.29;97111.97;4215646;28;6541;-72
2023/04/08 14:20:59;;;;;;;;;;;;;;;15.65;40.91;97111.50;4205202;28;5779;-72
2023/04/08 14:23:01;;;;;;;;;;;;;;;15.56;40.87;97107.44;4210238;28;5165;-72
2023/04/08 14:25:05;;;;;;;;;;;;;;;15.49;41.19;97106.66;4210777;28;5621;-72
2023/04/08 14:27:08;;;;;;;;;;;;;;;15.42;41.32;97109.38;4214930;28;5699;-72
2023/04/08 14:29:11;;;;;;;;;;;;;;;15.41;41.22;97114.94;4206541;28;5624;-72
2023/04/08 14:31:14;;;;;;;;;;;;;;;15.37;41.14;97117.19;4206705;28;5723;-72
2023/04/08 14:33:17;;;;;;;;;;;;;;;15.31;41.07;97119.91;4212467;28;5726;-72
2023/04/08 14:35:20;;;;;;;;;;;;;;;15.28;41.09;97121.13;4210753;28;5796;-72
2023/04/08 14:37:25;;;;;;;;;;;;;;;15.27;41.07;97114.19;4213652;28;5728;-72
2023/04/08 14:39:28;;;;;;;;;;;;;;;15.27;40.85;97127.50;4207304;28;5736;-72
2023/04/08 14:41:31;;;;;;;;;;;;;;;15.21;40.89;97130.22;4210313;28;5692;-72
2023/04/08 14:43:34;;;;;;;;;;;;;;;15.17;40.80;97118.34;4210449;28;5755;-72
2023/04/08 14:45:37;;;;;;;;;;;;;;;15.18;40.98;97114.69;4214377;28;5775;-72
2023/04/08 14:47:39;;;;;;;;;;;;;;;15.11;40.90;97118.19;4212323;28;5680;-72
2023/04/08 14:49:42;;;;;;;;;;;;;;;15.05;40.84;97119.03;4205702;28;5711;-72
2023/04/08 14:51:46;;;;;;;;;;;;;;;15.01;40.96;97114.34;4213794;28;6310;-72
2023/04/08 14:53:51;;;;;;;;;;;;;;;14.97;40.75;97108.66;4207429;28;5807;-72
2023/04/08 14:55:54;;;;;;;;;;;;;;;14.96;40.91;97117.66;4204417;28;5609;-71
2023/04/08 14:57:56;;;;;;;;;;;;;;;15.01;40.68;97122.34;4213054;28;5624;-70
2023/04/08 15:00:02;;;;;;;;;;;;;;;15.03;40.73;97113.09;4200033;28;5699;-71
2023/04/08 15:02:06;;;;;;;;;;;;;;;15.09;40.61;97114.91;4211418;28;5602;-71
2023/04/08 15:04:09;;;;;;;;;;;;;;;15.12;40.10;97111.81;4212425;28;5747;-72
2023/04/08 15:06:16;;;;;;;;;;;;;;;15.15;40.52;97122.03;4212020;28;5687;-71
2023/04/08 15:08:19;;;;;;;;;;;;;;;15.19;40.42;97116.31;4211925;28;5852;-72
2023/04/08 15:10:23;;;;;;;;;;;;;;;15.21;40.42;97111.59;4211649;28;5692;-72
2023/04/08 15:12:26;;;;;;;;;;;;;;;15.23;40.23;97117.50;4214515;28;5628;-72
2023/04/08 15:14:29;;;;;;;;;;;;;;;15.25;40.63;97118.91;4210183;28;5992;-73
2023/04/08 15:16:32;;;;;;;;;;;;;;;15.29;40.65;97119.28;4218952;28;5751;-73
2023/04/08 15:18:35;;;;;;;;;;;;;;;15.31;40.55;97117.25;4217439;28;5681;-73
2023/04/08 15:20:37;;;;;;;;;;;;;;;15.30;40.47;97120.94;4217479;28;5609;-73
2023/04/08 15:22:41;;;;;;;;;;;;;;;15.33;40.38;97118.66;4212064;28;5628;-73
2023/04/08 15:24:43;;;;;;;;;;;;;;;15.39;40.35;97122.31;4214162;28;5602;-74
2023/04/08 15:26:50;;;;;;;;;;;;;;;15.40;40.52;97118.59;4215431;28;5715;-73
2023/04/08 15:28:56;;;;;;;;;;;;;;;15.41;40.54;97117.59;4213085;28;5854;-73
2023/04/08 15:30:58;;;;;;;;;;;;;;;15.42;40.48;97120.03;4212683;28;5700;-73
2023/04/08 15:33:05;;;;;;;;;;;;;;;15.38;40.12;97120.66;4214861;28;5719;-74
2023/04/08 15:35:09;;;;;;;;;;;;;;;15.36;40.53;97117.41;4212240;28;5751;-73
2023/04/08 15:37:12;;;;;;;;;;;;;;;15.34;40.29;97114.97;4212750;28;5628;-73
2023/04/08 15:39:15;;;;;;;;;;;;;;;15.33;40.39;97124.00;4207017;28;5748;-73
2023/04/08 15:41:20;;;;;;;;;;;;;;;15.32;40.08;97126.88;4210742;28;5657;-74
2023/04/08 15:43:24;;;;;;;;;;;;;;;15.29;40.44;97122.81;4206526;28;6794;-75
2023/04/08 15:45:27;;;;;;;;;;;;;;;15.25;40.36;97120.75;4215649;28;6467;-75
2023/04/08 15:47:30;;;;;;;;;;;;;;;15.25;40.25;97120.75;4212516;28;5619;-70
2023/04/08 15:49:33;;;;;;;;;;;;;;;15.19;40.21;97124.31;4211220;28;5687;-73
2023/04/08 15:51:36;;;;;;;;;;;;;;;15.13;40.54;97132.09;4211846;28;5805;-77
2023/04/08 15:53:39;;;;;;;;;;;;;;;15.10;40.37;97137.03;4217897;28;5775;-76
2023/04/08 15:55:42;;;;;;;;;;;;;;;15.05;40.58;97145.66;4214633;28;5787;-75
2023/04/08 15:57:44;;;;;;;;;;;;;;;15.02;40.42;97138.09;4216836;28;5629;-75
2023/04/08 15:59:49;;;;;;;;;;;;;;;14.95;40.09;97120.50;4213648;28;5806;-76
2023/04/08 16:01:52;;;;;;;;;;;;;;;14.93;40.21;97123.38;4217627;28;5728;-75
2023/04/08 16:03:55;;;;;;;;;;;;;;;14.94;40.15;97121.53;4209179;28;5712;-75
2023/04/08 16:05:58;;;;;;;;;;;;;;;14.92;40.50;97127.09;4217671;28;5719;-75
2023/04/08 16:08:01;;;;;;;;;;;;;;;14.91;40.15;97125.44;4213497;28;5993;-71
2023/04/08 16:10:05;;;;;;;;;;;;;;;14.93;40.24;97139.38;4215598;28;7442;-70
2023/04/08 16:12:08;;;;;;;;;;;;;;;14.92;40.27;97127.09;4216404;28;6044;-70
2023/04/08 16:14:11;;;;;;;;;;;;;;;14.88;40.09;97120.56;4208692;28;5621;-70
2023/04/08 16:16:16;;;;;;;;;;;;;;;14.88;40.29;97119.75;4206999;28;5707;-69
2023/04/08 16:18:23;;;;;;;;;;;;;;;14.90;40.06;97118.50;4212453;28;5848;-70
2023/04/08 16:20:25;;;;;;;;;;;;;;;14.96;40.19;97128.31;4214447;28;5609;-69
2023/04/08 16:22:28;;;;;;;;;;;;;;;14.97;40.06;97121.94;4212772;28;5683;-71
2023/04/08 16:24:35;;;;;;;;;;;;;;;14.98;40.06;97123.59;4211604;28;5645;-74
2023/04/08 16:26:39;;;;;;;;;;;;;;;14.99;40.18;97117.22;4188820;28;5750;-74
2023/04/08 16:28:42;;;;;;;;;;;;;;;15.00;40.13;97124.19;4210275;28;5708;-74
2023/04/08 16:30:46;;;;;;;;;;;;;;;15.00;39.74;97131.34;4206928;28;6306;-74
2023/04/08 16:32:51;;;;;;;;;;;;;;;14.99;40.04;97133.19;4210177;28;5716;-75
2023/04/08 16:34:53;;;;;;;;;;;;;;;14.98;39.60;97123.59;4212981;28;5673;-73
2023/04/08 16:36:57;;;;;;;;;;;;;;;14.97;39.72;97129.94;4208471;28;5730;-73
2023/04/08 16:39:00;;;;;;;;;;;;;;;14.99;39.63;97127.88;4209080;28;6512;-73
2023/04/08 16:41:05;;;;;;;;;;;;;;;15.01;39.73;97136.47;4214471;28;5645;-74
2023/04/08 16:43:08;;;;;;;;;;;;;;;14.99;39.63;97133.19;4213532;28;5616;-74
2023/04/08 16:45:11;;;;;;;;;;;;;;;14.98;39.94;97131.56;4214009;28;6374;-73
2023/04/08 16:47:14;;;;;;;;;;;;;;;14.97;39.87;97123.81;4213888;28;5617;-72
2023/04/08 16:49:19;;;;;;;;;;;;;;;14.96;39.70;97127.50;4209140;28;5128;-73
2023/04/08 16:51:22;;;;;;;;;;;;;;;14.97;39.90;97124.63;4208831;28;5717;-72
2023/04/08 16:53:25;;;;;;;;;;;;;;;14.98;39.86;97128.91;4206098;28;5731;-73
2023/04/08 16:55:28;;;;;;;;;;;;;;;14.99;39.78;97141.19;4211374;28;5780;-73
2023/04/08 16:57:31;;;;;;;;;;;;;;;14.98;39.59;97126.25;4210302;28;5796;-72
2023/04/08 16:59:34;;;;;;;;;;;;;;;14.99;39.74;97127.88;4210798;28;5692;-73
2023/04/08 17:01:37;;;;;;;;;;;;;;;15.01;39.64;97133.81;4209762;28;5632;-73
2023/04/08 17:03:40;;;;;;;;;;;;;;;15.03;39.92;97130.91;4208700;28;5716;-73
2023/04/08 17:05:44;;;;;;;;;;;;;;;15.03;39.65;97134.41;4211906;28;5929;-73
2023/04/08 17:07:47;;;;;;;;;;;;;;;15.02;39.67;97129.28;4210531;28;5846;-73
2023/04/08 17:09:51;;;;;;;;;;;;;;;15.03;39.64;97134.41;4211594;28;6496;-72
2023/04/08 17:11:54;;;;;;;;;;;;;;;15.01;39.81;97131.13;4207531;28;5909;-72
2023/04/08 17:13:57;;;;;;;;;;;;;;;14.97;39.73;97129.94;4208472;28;6601;-72
2023/04/08 17:16:00;;;;;;;;;;;;;;;14.94;39.42;97132.19;4211369;28;5628;-74
2023/04/08 17:18:04;;;;;;;;;;;;;;;14.92;39.65;97143.06;4209922;28;5618;-73
2023/04/08 17:20:08;;;;;;;;;;;;;;;14.93;39.75;97138.53;4213781;28;5704;-73
2023/04/08 17:22:12;;;;;;;;;;;;;;;14.92;39.59;97137.72;4209236;28;5707;-73
2023/04/08 17:24:15;;;;;;;;;;;;;;;14.90;39.59;97153.09;4213398;28;5601;-73
2023/04/08 17:26:17;;;;;;;;;;;;;;;14.86;39.58;97143.91;4214130;28;5609;-73
2023/04/08 17:28:20;;;;;;;;;;;;;;;14.87;39.95;97142.88;4204448;28;5726;-74
2023/04/08 17:30:24;;;;;;;;;;;;;;;14.85;39.78;97143.09;4211709;28;5623;-77
2023/04/08 17:32:27;;;;;;;;;;;;;;;14.84;39.76;97144.13;4207166;28;5612;-71
2023/04/08 17:34:30;;;;;;;;;;;;;;;14.81;39.48;97151.69;4209127;28;5678;-71
2023/04/08 17:36:33;;;;;;;;;;;;;;;14.76;39.51;97148.88;4215509;28;5628;-76
2023/04/08 17:38:38;;;;;;;;;;;;;;;14.75;39.68;97158.69;4214050;28;5697;-79
2023/04/08 17:40:41;;;;;;;;;;;;;;;14.72;39.63;97142.31;4209187;28;5641;-71
2023/04/08 17:42:44;;;;;;;;;;;;;;;14.72;39.52;97152.97;4210517;28;5730;-80
2023/04/08 17:44:47;;;;;;;;;;;;;;;14.67;39.77;97147.47;4214329;28;5664;-83
2023/04/08 17:46:50;;;;;;;;;;;;;;;14.64;39.59;97162.00;4212340;28;5680;-77
2023/04/08 17:48:53;;;;;;;;;;;;;;;14.65;39.76;97162.81;4214845;28;5879;-74